createdAt,value
2022-08-07T00:00:53.502Z,1.00
2022-08-07T00:03:26.423Z,11.50
2022-08-07T00:06:06.350Z,20.40
2022-08-07T00:08:37.217Z,17.50
2022-08-07T00:11:13.159Z,1.00
2022-08-07T00:13:48.850Z,20.70
2022-08-07T00:16:21.636Z,37.70
2022-08-07T00:18:58.361Z,1.00
2022-08-07T00:21:56.914Z,1.00
2022-08-07T00:24:15.684Z,1.00
2022-08-07T00:26:58.883Z,1.00
2022-08-07T00:29:33.771Z,1.00
2022-08-07T00:32:06.916Z,1.00
2022-08-07T00:34:37.097Z,1.00
2022-08-07T00:37:05.741Z,1.00
2022-08-07T00:39:37.468Z,1.00
2022-08-07T00:42:13.976Z,1.00
2022-08-07T00:44:43.039Z,1.00
2022-08-07T00:47:15.913Z,1.00
2022-08-07T00:50:19.443Z,7.50
2022-08-07T00:52:51.079Z,1.00
2022-08-07T00:55:25.601Z,1.00
2022-08-07T00:58:10.611Z,1.00
2022-08-07T01:00:39.406Z,1.00
2022-08-07T01:03:54.624Z,28.30
2022-08-07T01:06:13.524Z,44.30
2022-08-07T01:08:53.588Z,32.70
2022-08-07T01:12:09.224Z,37.40
2022-08-07T01:14:12.232Z,99.90
2022-08-07T01:16:47.367Z,98.70
2022-08-07T01:19:19.109Z,99.90
2022-08-07T01:21:53.399Z,92.30
2022-08-07T01:24:24.534Z,96.50
2022-08-07T01:26:53.813Z,19.60
2022-08-07T01:29:27.649Z,99.90
2022-08-07T01:31:59.357Z,80.70
2022-08-07T01:34:31.618Z,44.20
2022-08-07T01:37:03.003Z,79.00
2022-08-07T01:39:40.687Z,99.90
2022-08-07T01:42:38.842Z,99.90
2022-08-07T01:45:15.917Z,99.90
2022-08-07T01:48:21.263Z,99.90
2022-08-07T01:50:40.211Z,99.90
2022-08-07T01:53:20.786Z,99.90
2022-08-07T01:55:52.842Z,99.90
2022-08-07T01:58:28.953Z,99.90
2022-08-07T02:01:25.208Z,99.90
2022-08-07T02:03:57.979Z,1.00
2022-08-07T02:06:31.260Z,1.00
2022-08-07T02:09:06.456Z,1.00
2022-08-07T02:12:02.806Z,1.00
2022-08-07T02:14:40.341Z,99.90
2022-08-07T02:17:11.213Z,77.90
2022-08-07T02:20:06.670Z,44.50
2022-08-07T02:22:32.384Z,1.00
2022-08-07T02:25:07.437Z,99.90
2022-08-07T02:27:44.436Z,99.90
2022-08-07T02:30:21.051Z,99.90
2022-08-07T02:33:00.743Z,1.00
2022-08-07T02:36:29.410Z,99.90
2022-08-07T02:38:31.992Z,1.00
2022-08-07T02:41:03.697Z,1.00
2022-08-07T02:43:34.743Z,1.00
2022-08-07T02:46:06.707Z,99.90
2022-08-07T02:48:35.834Z,99.90
2022-08-07T02:51:29.033Z,99.90
2022-08-07T02:54:01.471Z,99.90
2022-08-07T02:56:34.529Z,99.90
2022-08-07T02:59:07.330Z,99.90
2022-08-07T03:01:39.934Z,1.00
2022-08-07T03:04:12.954Z,1.00
2022-08-07T03:06:45.782Z,1.00
2022-08-07T03:09:43.850Z,99.90
2022-08-07T03:12:08.101Z,1.00
2022-08-07T03:14:52.194Z,1.00
2022-08-07T03:17:22.118Z,99.90
2022-08-07T03:19:54.493Z,99.90
2022-08-07T03:22:30.275Z,1.00
2022-08-07T03:25:00.366Z,99.90
2022-08-07T03:27:59.505Z,99.90
2022-08-07T03:30:20.765Z,99.90
2022-08-07T03:32:58.860Z,1.00
2022-08-07T03:35:43.483Z,1.00
2022-08-07T03:38:13.849Z,1.00
2022-08-07T03:40:44.466Z,14.70
2022-08-07T03:43:15.762Z,1.00
2022-08-07T03:45:47.775Z,1.00
2022-08-07T03:48:17.703Z,1.00
2022-08-07T03:50:52.164Z,1.00
2022-08-07T03:53:49.891Z,9.00
2022-08-07T03:56:32.812Z,1.00
2022-08-07T03:59:13.143Z,1.00
2022-08-07T04:01:45.696Z,1.00
2022-08-07T04:04:17.480Z,1.00
2022-08-07T04:06:51.679Z,1.00
2022-08-07T04:09:23.131Z,99.90
2022-08-07T04:12:26.725Z,99.90
2022-08-07T04:14:46.184Z,99.90
2022-08-07T04:17:21.110Z,99.90
2022-08-07T04:19:54.187Z,41.80
2022-08-07T04:22:29.133Z,1.00
2022-08-07T04:25:01.159Z,99.90
2022-08-07T04:27:35.525Z,99.90
2022-08-07T04:30:21.030Z,1.00
2022-08-07T04:32:58.035Z,1.00
2022-08-07T04:35:34.972Z,1.00
2022-08-07T04:38:07.973Z,99.90
2022-08-07T04:40:43.953Z,99.90
2022-08-07T04:44:09.620Z,1.00
2022-08-07T04:46:20.210Z,46.60
2022-08-07T04:49:07.477Z,1.00
2022-08-07T04:51:57.974Z,99.90
2022-08-07T04:54:35.255Z,99.90
2022-08-07T04:58:12.790Z,93.70
2022-08-07T05:00:30.035Z,24.10
2022-08-07T05:03:17.052Z,1.00
2022-08-07T05:06:19.175Z,99.90
2022-08-07T05:09:00.778Z,99.90
2022-08-07T05:11:57.766Z,99.90
2022-08-07T05:14:55.126Z,99.90
2022-08-07T05:17:52.869Z,99.90
2022-08-07T05:20:15.115Z,99.90
2022-08-07T05:22:47.922Z,44.40
2022-08-07T05:25:26.259Z,99.90
2022-08-07T05:28:20.675Z,54.00
2022-08-07T05:30:53.790Z,95.60
2022-08-07T05:33:24.287Z,60.50
2022-08-07T05:35:57.800Z,77.50
2022-08-07T05:38:58.236Z,67.80
2022-08-07T05:41:17.056Z,37.90
2022-08-07T05:44:12.392Z,65.10
2022-08-07T05:46:40.867Z,99.90
2022-08-07T05:49:14.372Z,99.90
2022-08-07T05:51:46.429Z,98.50
2022-08-07T05:54:30.731Z,99.90
2022-08-07T05:57:05.334Z,85.60
2022-08-07T05:59:55.759Z,71.10
2022-08-07T06:02:30.778Z,82.60
2022-08-07T06:05:04.587Z,45.30
2022-08-07T06:08:13.468Z,89.30
2022-08-07T06:10:25.948Z,99.90
2022-08-07T06:12:54.833Z,1.00
2022-08-07T06:15:39.035Z,29.20
2022-08-07T06:18:14.367Z,4.70
2022-08-07T06:20:50.068Z,1.00
2022-08-07T06:24:37.118Z,9.30
2022-08-07T06:26:27.515Z,32.20
2022-08-07T06:29:01.090Z,1.00
2022-08-07T06:31:47.030Z,1.00
2022-08-07T06:34:20.414Z,1.00
2022-08-07T06:36:52.007Z,1.00
2022-08-07T06:40:16.830Z,1.00
2022-08-07T06:42:17.776Z,1.00
2022-08-07T06:44:51.242Z,1.00
2022-08-07T06:47:21.004Z,1.00
2022-08-07T06:49:52.003Z,1.00
2022-08-07T06:52:35.546Z,1.00
2022-08-07T06:55:32.640Z,1.00
2022-08-07T06:58:01.964Z,1.00
2022-08-07T07:00:35.266Z,1.00
2022-08-07T07:03:08.659Z,99.90
2022-08-07T07:06:03.542Z,99.90
2022-08-07T07:08:31.140Z,99.90
2022-08-07T07:11:13.918Z,99.90
2022-08-07T07:14:01.340Z,99.90
2022-08-07T07:16:45.088Z,99.90
2022-08-07T07:19:56.441Z,99.90
2022-08-07T07:22:36.639Z,99.90
2022-08-07T07:25:13.829Z,99.90
2022-08-07T07:27:55.618Z,99.90
2022-08-07T07:30:38.721Z,99.90
2022-08-07T07:33:12.289Z,99.90
2022-08-07T07:36:04.656Z,99.90
2022-08-07T07:38:36.005Z,99.90
2022-08-07T07:41:08.583Z,99.90
2022-08-07T07:44:14.401Z,99.90
2022-08-07T07:46:40.465Z,99.90
2022-08-07T07:50:34.880Z,99.90
2022-08-07T07:52:18.826Z,99.90
2022-08-07T07:54:50.788Z,99.90
2022-08-07T07:57:25.891Z,99.90
2022-08-07T08:00:28.838Z,99.90
2022-08-07T08:03:16.707Z,99.90
2022-08-07T08:06:03.919Z,99.90
2022-08-07T08:08:36.843Z,99.90
2022-08-07T08:11:16.143Z,99.90
2022-08-07T08:13:54.227Z,99.90
2022-08-07T08:16:31.173Z,99.90
2022-08-07T08:19:18.028Z,99.90
2022-08-07T08:22:12.179Z,99.90
2022-08-07T08:25:18.325Z,99.90
2022-08-07T08:27:56.288Z,99.90
2022-08-07T08:30:27.343Z,99.90
2022-08-07T08:33:01.622Z,99.90
2022-08-07T08:35:42.873Z,99.90
2022-08-07T08:38:18.354Z,99.90
2022-08-07T08:40:57.125Z,99.90
2022-08-07T08:43:42.733Z,99.90
2022-08-07T08:46:21.096Z,99.90
2022-08-07T08:49:01.108Z,99.90
2022-08-07T08:52:01.010Z,99.90
2022-08-07T08:54:34.448Z,99.90
2022-08-07T08:57:08.622Z,99.90
2022-08-07T08:59:48.090Z,99.90
2022-08-07T09:02:35.111Z,99.90
2022-08-07T09:05:22.554Z,99.90
2022-08-07T09:08:04.665Z,99.90
2022-08-07T09:10:44.111Z,1.00
2022-08-07T09:13:36.912Z,1.00
2022-08-07T09:16:20.215Z,1.00
2022-08-07T09:19:51.203Z,1.00
2022-08-07T09:24:32.199Z,1.00
2022-08-07T09:25:18.362Z,99.90
2022-08-07T09:28:01.243Z,99.90
2022-08-07T09:30:46.328Z,99.90
2022-08-07T09:33:53.132Z,1.00
2022-08-07T09:36:35.875Z,1.00
2022-08-07T09:39:55.124Z,99.90
2022-08-07T09:42:35.516Z,99.90
2022-08-07T09:47:20.239Z,99.90
2022-08-07T09:48:18.882Z,99.90
2022-08-07T09:51:14.487Z,1.00
2022-08-07T09:53:48.895Z,1.00
2022-08-07T09:56:54.928Z,99.90
2022-08-07T10:00:00.774Z,99.90
2022-08-07T10:03:07.760Z,1.00
2022-08-07T10:06:17.427Z,1.00
2022-08-07T10:09:08.761Z,1.00
2022-08-07T10:12:00.483Z,1.00
2022-08-07T10:14:56.729Z,1.00
2022-08-07T10:18:08.959Z,1.00
2022-08-07T10:20:45.751Z,1.00
2022-08-07T10:24:05.193Z,1.00
2022-08-07T10:26:59.779Z,1.00
2022-08-07T10:29:59.912Z,99.90
2022-08-07T10:32:53.762Z,99.90
2022-08-07T10:35:55.229Z,99.90
2022-08-07T10:38:46.469Z,99.90
2022-08-07T10:41:52.893Z,99.90
2022-08-07T10:44:28.431Z,99.90
2022-08-07T10:47:14.695Z,99.90
2022-08-07T10:49:51.804Z,99.90
2022-08-07T10:52:31.895Z,99.90
2022-08-07T10:55:32.515Z,99.90
2022-08-07T10:58:15.112Z,99.90
2022-08-07T11:00:59.430Z,99.90
2022-08-07T11:03:52.969Z,1.00
2022-08-07T11:06:33.007Z,1.00
2022-08-07T11:09:11.316Z,1.00
2022-08-07T11:11:51.916Z,1.00
2022-08-07T11:14:45.087Z,1.00
2022-08-07T11:17:23.577Z,1.00
2022-08-07T11:20:19.640Z,1.00
2022-08-07T11:22:59.949Z,1.00
2022-08-07T11:25:42.184Z,1.00
2022-08-07T11:28:20.925Z,1.00
2022-08-07T11:30:58.031Z,1.00
2022-08-07T11:33:54.115Z,1.00
2022-08-07T11:36:45.236Z,1.00
2022-08-07T11:40:00.450Z,1.00
2022-08-07T11:42:42.255Z,1.00
2022-08-07T11:45:20.500Z,1.00
2022-08-07T11:48:29.698Z,1.00
2022-08-07T11:51:41.793Z,99.90
2022-08-07T11:54:25.284Z,99.90
2022-08-07T11:57:04.820Z,99.90
2022-08-07T12:00:10.138Z,1.00
2022-08-07T12:03:44.713Z,1.00
2022-08-07T12:06:37.033Z,1.00
2022-08-07T12:09:22.995Z,1.00
2022-08-07T12:12:10.281Z,1.00
2022-08-07T12:15:01.885Z,1.00
2022-08-07T12:17:59.228Z,1.00
2022-08-07T12:20:34.980Z,1.00
2022-08-07T12:24:06.329Z,1.00
2022-08-07T12:26:35.370Z,1.00
2022-08-07T12:29:14.176Z,1.00
2022-08-07T12:31:52.779Z,1.00
2022-08-07T12:34:38.699Z,1.00
2022-08-07T12:37:16.867Z,99.90
2022-08-07T12:39:54.562Z,99.90
2022-08-07T12:42:32.175Z,99.90
2022-08-07T12:45:08.711Z,99.90
2022-08-07T12:47:49.268Z,99.90
2022-08-07T12:50:34.096Z,99.90
2022-08-07T12:53:17.736Z,99.90
2022-08-07T12:56:02.057Z,99.90
2022-08-07T12:58:39.866Z,99.90
2022-08-07T13:01:28.233Z,99.90
2022-08-07T13:04:32.579Z,99.90
2022-08-07T13:08:12.380Z,99.90
2022-08-07T13:10:40.868Z,99.90
2022-08-07T13:13:48.016Z,99.90
2022-08-07T13:16:29.699Z,99.90
2022-08-07T13:19:18.224Z,99.90
2022-08-07T13:22:08.529Z,99.90
2022-08-07T13:24:54.178Z,99.90
2022-08-07T13:28:05.896Z,99.90
2022-08-07T13:30:19.654Z,99.90
2022-08-07T13:34:29.788Z,99.90
2022-08-07T13:36:09.820Z,99.90
2022-08-07T13:38:54.467Z,99.90
2022-08-07T13:41:33.854Z,99.90
2022-08-07T13:44:10.415Z,99.90
2022-08-07T13:46:49.431Z,99.90
2022-08-07T13:50:32.909Z,99.90
2022-08-07T13:52:32.481Z,99.90
2022-08-07T13:55:10.983Z,99.90
2022-08-07T13:57:57.936Z,99.90
2022-08-07T14:00:50.372Z,99.90
2022-08-07T14:04:01.597Z,99.90
2022-08-07T14:06:17.973Z,99.90
2022-08-07T14:08:53.660Z,99.90
2022-08-07T14:11:27.330Z,99.90
2022-08-07T14:14:18.642Z,99.90
2022-08-07T14:16:50.619Z,99.90
2022-08-07T14:20:40.040Z,99.90
2022-08-07T14:22:34.625Z,99.90
2022-08-07T14:25:10.946Z,99.90
2022-08-07T14:28:19.941Z,99.90
2022-08-07T14:30:33.268Z,99.90
2022-08-07T14:33:05.254Z,99.90
2022-08-07T14:35:43.381Z,99.90
2022-08-07T14:38:30.221Z,99.90
2022-08-07T14:41:04.293Z,99.90
2022-08-07T14:43:58.550Z,99.90
2022-08-07T14:49:56.860Z,99.90
2022-08-07T14:52:16.771Z,99.90
2022-08-07T14:57:57.851Z,99.90
2022-08-07T15:00:31.918Z,99.90
2022-08-07T15:03:16.485Z,99.90
2022-08-07T15:05:55.306Z,99.90
2022-08-07T15:08:50.160Z,99.90
2022-08-07T15:14:22.640Z,99.90
2022-08-07T15:17:00.559Z,99.90
2022-08-07T15:22:29.476Z,99.90
2022-08-07T15:25:17.834Z,99.90
2022-08-07T15:33:36.876Z,99.90
2022-08-07T15:36:09.012Z,99.90
2022-08-07T15:44:24.198Z,99.90
2022-08-07T15:47:03.279Z,99.90
2022-08-07T15:50:05.530Z,99.90
2022-08-07T15:52:30.830Z,99.90
2022-08-07T15:55:03.385Z,99.90
2022-08-07T15:57:48.247Z,99.90
2022-08-07T16:00:33.725Z,99.90
2022-08-07T16:03:06.593Z,99.90
2022-08-07T16:05:52.075Z,99.90
2022-08-07T16:08:30.889Z,99.90
2022-08-07T16:11:26.281Z,99.90
2022-08-07T16:14:10.795Z,99.90
2022-08-07T16:17:02.862Z,99.90
2022-08-07T16:20:04.667Z,99.90
2022-08-07T16:23:05.463Z,99.90
2022-08-07T16:25:54.360Z,99.90
2022-08-07T16:30:06.516Z,99.90
2022-08-07T16:31:50.087Z,99.90
2022-08-07T16:34:41.427Z,99.90
2022-08-07T16:38:06.752Z,99.90
2022-08-07T16:41:15.922Z,99.90
2022-08-07T16:44:47.261Z,99.90
2022-08-07T16:47:55.700Z,99.90
2022-08-07T16:50:48.454Z,99.90
2022-08-07T16:54:02.983Z,99.90
2022-08-07T16:56:53.276Z,99.90
2022-08-07T16:59:53.192Z,99.90
2022-08-07T17:02:53.025Z,99.90
2022-08-07T17:06:19.186Z,99.90
2022-08-07T17:09:10.651Z,99.90
2022-08-07T17:12:04.999Z,99.90
2022-08-07T17:14:49.822Z,99.90
2022-08-07T17:17:46.553Z,99.90
2022-08-07T17:20:29.931Z,99.90
2022-08-07T17:23:08.760Z,99.90
2022-08-07T17:25:55.506Z,99.90
2022-08-07T17:28:32.958Z,99.90
2022-08-07T17:31:16.675Z,99.90
2022-08-07T17:34:15.025Z,99.90
2022-08-07T17:36:58.376Z,99.90
2022-08-07T17:39:58.221Z,99.90
2022-08-07T17:42:59.797Z,99.90
2022-08-07T17:45:37.808Z,99.90
2022-08-07T17:48:16.750Z,99.90
2022-08-07T17:51:08.797Z,99.90
2022-08-07T17:54:00.672Z,99.90
2022-08-07T17:56:34.362Z,99.90
2022-08-07T17:59:17.022Z,99.90
2022-08-07T18:01:57.551Z,99.90
2022-08-07T18:04:46.383Z,99.90
2022-08-07T18:07:24.554Z,99.90
2022-08-07T18:10:09.983Z,99.90
2022-08-07T18:13:09.639Z,99.90
2022-08-07T18:16:03.681Z,99.90
2022-08-07T18:21:01.633Z,99.90
2022-08-07T18:22:02.325Z,99.90
2022-08-07T18:24:34.499Z,99.90
2022-08-07T18:27:38.469Z,99.90
2022-08-07T18:30:31.763Z,99.90
2022-08-07T18:33:55.210Z,99.90
2022-08-07T18:36:41.884Z,99.90
2022-08-07T18:40:07.412Z,99.90
2022-08-07T18:42:19.444Z,99.90
2022-08-07T18:45:43.376Z,99.90
2022-08-07T18:48:01.643Z,99.90
2022-08-07T18:50:50.632Z,99.90
2022-08-07T18:53:39.911Z,99.90
2022-08-07T18:56:18.696Z,99.90
2022-08-07T18:59:00.498Z,99.90
2022-08-07T19:02:19.351Z,99.90
2022-08-07T19:04:57.374Z,99.90
2022-08-07T19:07:37.802Z,99.90
2022-08-07T19:10:31.298Z,99.90
2022-08-07T19:13:10.107Z,99.90
2022-08-07T19:16:04.759Z,99.90
2022-08-07T19:18:46.631Z,99.90
2022-08-07T19:21:47.833Z,99.90
2022-08-07T19:24:30.620Z,99.90
2022-08-07T19:28:56.783Z,99.90
2022-08-07T19:31:06.122Z,99.90
2022-08-07T19:32:59.682Z,99.90
2022-08-07T19:35:33.742Z,99.90
2022-08-07T19:38:17.175Z,1.00
2022-08-07T19:40:49.843Z,1.00
2022-08-07T19:43:49.271Z,1.00
2022-08-07T19:46:19.521Z,1.00
2022-08-07T19:48:55.162Z,1.00
2022-08-07T19:51:52.636Z,1.00
2022-08-07T19:54:31.939Z,1.00
2022-08-07T19:58:00.427Z,1.00
2022-08-07T20:00:10.383Z,1.00
2022-08-07T20:02:51.984Z,1.00
2022-08-07T20:05:28.001Z,1.00
2022-08-07T20:08:02.925Z,1.00
2022-08-07T20:10:54.462Z,1.00
2022-08-07T20:13:41.716Z,1.00
2022-08-07T20:16:36.234Z,1.00
2022-08-07T20:19:10.673Z,1.00
2022-08-07T20:21:46.882Z,1.00
2022-08-07T20:24:22.359Z,1.00
2022-08-07T20:26:55.723Z,1.00
2022-08-07T20:29:48.737Z,1.00
2022-08-07T20:32:26.005Z,1.00
2022-08-07T20:35:07.885Z,1.00
2022-08-07T20:37:55.593Z,1.00
2022-08-07T20:40:51.588Z,1.00
2022-08-07T20:43:32.244Z,1.00
2022-08-07T20:46:28.339Z,1.00
2022-08-07T20:49:58.908Z,1.00
2022-08-07T20:51:51.483Z,1.00
2022-08-07T20:54:30.339Z,1.00
2022-08-07T20:57:05.006Z,1.00
2022-08-07T21:00:06.529Z,1.00
2022-08-07T21:02:54.226Z,1.00
2022-08-07T21:05:54.475Z,1.00
2022-08-07T21:08:38.246Z,1.00
2022-08-07T21:11:14.482Z,1.00
2022-08-07T21:14:16.394Z,1.00
2022-08-07T21:16:56.003Z,1.00
2022-08-07T21:19:32.539Z,1.00
2022-08-07T21:22:19.883Z,1.00
2022-08-07T21:25:12.220Z,1.00
2022-08-07T21:28:02.065Z,1.00
2022-08-07T21:30:44.889Z,1.00
2022-08-07T21:33:21.999Z,1.00
2022-08-07T21:36:05.177Z,1.00
2022-08-07T21:38:55.325Z,1.00
2022-08-07T21:41:38.408Z,1.00
2022-08-07T21:44:30.337Z,1.00
2022-08-07T21:47:07.357Z,1.00
2022-08-07T21:50:02.041Z,1.00
2022-08-07T21:52:45.676Z,1.00
2022-08-07T21:55:28.385Z,1.00
2022-08-07T21:58:12.178Z,1.00
2022-08-07T22:00:48.584Z,1.00
2022-08-07T22:03:31.093Z,1.00
2022-08-07T22:06:05.242Z,1.00
2022-08-07T22:08:41.862Z,1.00
2022-08-07T22:11:18.316Z,1.00
2022-08-07T22:13:55.403Z,1.00
2022-08-07T22:16:38.995Z,1.00
2022-08-07T22:19:20.237Z,1.00
2022-08-07T22:22:18.221Z,1.00
2022-08-07T22:25:07.748Z,1.00
2022-08-07T22:28:03.131Z,1.00
2022-08-07T22:30:41.632Z,1.00
2022-08-07T22:33:15.252Z,1.00
2022-08-07T22:35:50.105Z,1.00
2022-08-07T22:38:31.470Z,1.00
2022-08-07T22:41:07.471Z,1.00
2022-08-07T22:43:46.328Z,1.00
2022-08-07T22:47:03.526Z,1.00
2022-08-07T22:49:55.854Z,1.00
2022-08-07T22:52:57.210Z,1.00
2022-08-07T22:55:48.174Z,1.00
2022-08-07T22:58:41.659Z,6.80
2022-08-07T23:01:49.911Z,1.00
2022-08-07T23:04:56.686Z,73.00
2022-08-07T23:07:42.895Z,88.10
2022-08-07T23:10:38.480Z,99.90
2022-08-07T23:13:29.436Z,99.90
2022-08-07T23:16:46.723Z,47.80
2022-08-07T23:19:38.862Z,56.00
2022-08-07T23:22:34.152Z,45.00
2022-08-07T23:25:20.874Z,89.50
2022-08-07T23:28:21.548Z,99.90
2022-08-07T23:31:13.912Z,99.90
2022-08-07T23:34:38.259Z,99.90
2022-08-07T23:37:30.482Z,72.20
2022-08-07T23:40:19.355Z,99.90
2022-08-07T23:43:02.132Z,99.90
2022-08-07T23:46:02.624Z,99.90
2022-08-07T23:49:13.727Z,99.90
2022-08-07T23:53:00.072Z,99.90
2022-08-07T23:54:53.041Z,99.90
2022-08-07T23:57:29.392Z,99.90
